sensor_id;sensor_type;location;lat;lon;timestamp;P1;durP1;ratioP1;P2;durP2;ratioP2
17953;SDS011;9102;53.548;9.926;2022-10-22T00:01:58;42.92;;;22.63;;
17953;SDS011;9102;53.548;9.926;2022-10-22T00:04:25;50.70;;;24.73;;
17953;SDS011;9102;53.548;9.926;2022-10-22T00:06:51;39.47;;;21.13;;
17953;SDS011;9102;53.548;9.926;2022-10-22T00:09:18;37.13;;;20.30;;
17953;SDS011;9102;53.548;9.926;2022-10-22T00:11:45;40.40;;;21.05;;
17953;SDS011;9102;53.548;9.926;2022-10-22T00:14:12;38.05;;;20.08;;
17953;SDS011;9102;53.548;9.926;2022-10-22T00:16:41;41.10;;;21.27;;
17953;SDS011;9102;53.548;9.926;2022-10-22T00:19:07;41.53;;;21.25;;
17953;SDS011;9102;53.548;9.926;2022-10-22T00:21:35;42.70;;;21.88;;
17953;SDS011;9102;53.548;9.926;2022-10-22T00:24:02;37.83;;;19.98;;
17953;SDS011;9102;53.548;9.926;2022-10-22T00:26:29;44.15;;;21.88;;
17953;SDS011;9102;53.548;9.926;2022-10-22T00:28:56;37.60;;;20.50;;
17953;SDS011;9102;53.548;9.926;2022-10-22T00:31:22;41.67;;;22.25;;
17953;SDS011;9102;53.548;9.926;2022-10-22T00:33:50;37.70;;;21.35;;
17953;SDS011;9102;53.548;9.926;2022-10-22T00:36:17;42.40;;;22.67;;
17953;SDS011;9102;53.548;9.926;2022-10-22T00:38:44;38.95;;;22.00;;
17953;SDS011;9102;53.548;9.926;2022-10-22T00:41:12;40.17;;;21.65;;
17953;SDS011;9102;53.548;9.926;2022-10-22T00:43:52;40.45;;;22.17;;
17953;SDS011;9102;53.548;9.926;2022-10-22T00:46:20;36.70;;;19.70;;
17953;SDS011;9102;53.548;9.926;2022-10-22T00:48:47;44.30;;;21.25;;
17953;SDS011;9102;53.548;9.926;2022-10-22T00:51:16;34.58;;;20.40;;
17953;SDS011;9102;53.548;9.926;2022-10-22T00:53:46;37.35;;;20.25;;
17953;SDS011;9102;53.548;9.926;2022-10-22T00:56:15;39.35;;;21.42;;
17953;SDS011;9102;53.548;9.926;2022-10-22T00:58:43;36.08;;;20.25;;
17953;SDS011;9102;53.548;9.926;2022-10-22T01:01:15;34.72;;;19.83;;
17953;SDS011;9102;53.548;9.926;2022-10-22T01:03:46;33.17;;;19.75;;
17953;SDS011;9102;53.548;9.926;2022-10-22T01:06:18;36.63;;;19.88;;
17953;SDS011;9102;53.548;9.926;2022-10-22T01:08:52;34.22;;;19.77;;
17953;SDS011;9102;53.548;9.926;2022-10-22T01:11:29;40.53;;;21.10;;
17953;SDS011;9102;53.548;9.926;2022-10-22T01:14:07;32.92;;;20.20;;
17953;SDS011;9102;53.548;9.926;2022-10-22T01:16:41;37.55;;;21.00;;
17953;SDS011;9102;53.548;9.926;2022-10-22T01:19:21;36.67;;;20.92;;
17953;SDS011;9102;53.548;9.926;2022-10-22T01:21:59;31.45;;;19.13;;
17953;SDS011;9102;53.548;9.926;2022-10-22T01:24:42;39.47;;;21.52;;
17953;SDS011;9102;53.548;9.926;2022-10-22T01:27:34;33.25;;;18.90;;
17953;SDS011;9102;53.548;9.926;2022-10-22T01:30:10;35.85;;;20.38;;
17953;SDS011;9102;53.548;9.926;2022-10-22T01:32:40;38.58;;;21.27;;
17953;SDS011;9102;53.548;9.926;2022-10-22T01:35:12;34.58;;;19.45;;
17953;SDS011;9102;53.548;9.926;2022-10-22T01:37:43;38.88;;;22.40;;
17953;SDS011;9102;53.548;9.926;2022-10-22T01:40:11;44.72;;;21.83;;
17953;SDS011;9102;53.548;9.926;2022-10-22T01:42:41;35.28;;;21.25;;
17953;SDS011;9102;53.548;9.926;2022-10-22T01:45:11;39.50;;;21.27;;
17953;SDS011;9102;53.548;9.926;2022-10-22T01:47:40;33.72;;;19.42;;
17953;SDS011;9102;53.548;9.926;2022-10-22T01:50:22;38.30;;;21.90;;
17953;SDS011;9102;53.548;9.926;2022-10-22T01:53:00;38.15;;;21.58;;
17953;SDS011;9102;53.548;9.926;2022-10-22T01:55:47;54.72;;;26.50;;
17953;SDS011;9102;53.548;9.926;2022-10-22T01:58:24;48.45;;;24.23;;
17953;SDS011;9102;53.548;9.926;2022-10-22T02:01:02;41.92;;;21.58;;
17953;SDS011;9102;53.548;9.926;2022-10-22T02:03:35;37.85;;;20.65;;
17953;SDS011;9102;53.548;9.926;2022-10-22T02:06:10;40.15;;;21.15;;
17953;SDS011;9102;53.548;9.926;2022-10-22T02:08:39;43.03;;;21.10;;
17953;SDS011;9102;53.548;9.926;2022-10-22T02:11:06;38.83;;;20.73;;
17953;SDS011;9102;53.548;9.926;2022-10-22T02:13:35;41.58;;;21.00;;
17953;SDS011;9102;53.548;9.926;2022-10-22T02:16:08;40.92;;;20.90;;
17953;SDS011;9102;53.548;9.926;2022-10-22T02:18:39;42.13;;;21.98;;
17953;SDS011;9102;53.548;9.926;2022-10-22T02:21:08;45.08;;;22.90;;
17953;SDS011;9102;53.548;9.926;2022-10-22T02:23:35;46.35;;;23.38;;
17953;SDS011;9102;53.548;9.926;2022-10-22T02:26:05;47.53;;;21.63;;
17953;SDS011;9102;53.548;9.926;2022-10-22T02:28:38;43.45;;;22.02;;
17953;SDS011;9102;53.548;9.926;2022-10-22T02:31:12;51.25;;;24.20;;
17953;SDS011;9102;53.548;9.926;2022-10-22T02:33:42;44.28;;;22.42;;
17953;SDS011;9102;53.548;9.926;2022-10-22T02:36:12;51.63;;;24.20;;
17953;SDS011;9102;53.548;9.926;2022-10-22T02:38:40;45.13;;;22.40;;
17953;SDS011;9102;53.548;9.926;2022-10-22T02:41:08;48.08;;;23.63;;
17953;SDS011;9102;53.548;9.926;2022-10-22T02:43:39;50.78;;;22.90;;
17953;SDS011;9102;53.548;9.926;2022-10-22T02:46:07;46.85;;;22.50;;
17953;SDS011;9102;53.548;9.926;2022-10-22T02:48:36;46.25;;;22.88;;
17953;SDS011;9102;53.548;9.926;2022-10-22T02:51:03;46.65;;;23.02;;
17953;SDS011;9102;53.548;9.926;2022-10-22T02:53:30;43.22;;;22.73;;
17953;SDS011;9102;53.548;9.926;2022-10-22T02:55:57;45.92;;;21.05;;
17953;SDS011;9102;53.548;9.926;2022-10-22T02:58:24;51.88;;;23.80;;
17953;SDS011;9102;53.548;9.926;2022-10-22T03:00:51;55.70;;;25.05;;
17953;SDS011;9102;53.548;9.926;2022-10-22T03:03:18;52.80;;;24.65;;
17953;SDS011;9102;53.548;9.926;2022-10-22T03:05:48;50.13;;;23.10;;
17953;SDS011;9102;53.548;9.926;2022-10-22T03:08:15;50.75;;;24.23;;
17953;SDS011;9102;53.548;9.926;2022-10-22T03:10:43;46.67;;;22.40;;
17953;SDS011;9102;53.548;9.926;2022-10-22T03:13:10;52.20;;;24.65;;
17953;SDS011;9102;53.548;9.926;2022-10-22T03:15:36;54.33;;;25.35;;
17953;SDS011;9102;53.548;9.926;2022-10-22T03:18:03;44.95;;;22.10;;
17953;SDS011;9102;53.548;9.926;2022-10-22T03:20:30;50.45;;;24.45;;
17953;SDS011;9102;53.548;9.926;2022-10-22T03:22:58;57.03;;;24.73;;
17953;SDS011;9102;53.548;9.926;2022-10-22T03:25:26;51.10;;;24.58;;
17953;SDS011;9102;53.548;9.926;2022-10-22T03:27:55;53.58;;;25.70;;
17953;SDS011;9102;53.548;9.926;2022-10-22T03:30:26;52.33;;;24.42;;
17953;SDS011;9102;53.548;9.926;2022-10-22T03:32:53;57.42;;;25.38;;
17953;SDS011;9102;53.548;9.926;2022-10-22T03:35:20;48.03;;;23.42;;
17953;SDS011;9102;53.548;9.926;2022-10-22T03:37:46;56.80;;;24.65;;
17953;SDS011;9102;53.548;9.926;2022-10-22T03:40:15;60.05;;;26.73;;
17953;SDS011;9102;53.548;9.926;2022-10-22T03:42:43;56.60;;;25.55;;
17953;SDS011;9102;53.548;9.926;2022-10-22T03:45:10;55.00;;;24.42;;
17953;SDS011;9102;53.548;9.926;2022-10-22T03:47:37;55.78;;;25.45;;
17953;SDS011;9102;53.548;9.926;2022-10-22T03:50:04;47.08;;;23.23;;
17953;SDS011;9102;53.548;9.926;2022-10-22T03:52:34;50.13;;;23.60;;
17953;SDS011;9102;53.548;9.926;2022-10-22T03:55:02;53.13;;;24.60;;
17953;SDS011;9102;53.548;9.926;2022-10-22T03:57:31;56.97;;;26.17;;
17953;SDS011;9102;53.548;9.926;2022-10-22T03:59:58;62.28;;;26.20;;
17953;SDS011;9102;53.548;9.926;2022-10-22T04:02:25;60.13;;;26.48;;
17953;SDS011;9102;53.548;9.926;2022-10-22T04:04:52;59.95;;;26.23;;
17953;SDS011;9102;53.548;9.926;2022-10-22T04:07:19;58.10;;;25.52;;
17953;SDS011;9102;53.548;9.926;2022-10-22T04:09:45;63.33;;;26.13;;
17953;SDS011;9102;53.548;9.926;2022-10-22T04:12:12;60.50;;;26.25;;
17953;SDS011;9102;53.548;9.926;2022-10-22T04:14:40;71.80;;;28.92;;
17953;SDS011;9102;53.548;9.926;2022-10-22T04:17:07;70.18;;;28.55;;
17953;SDS011;9102;53.548;9.926;2022-10-22T04:19:34;82.93;;;32.28;;
17953;SDS011;9102;53.548;9.926;2022-10-22T04:22:01;70.35;;;29.80;;
17953;SDS011;9102;53.548;9.926;2022-10-22T04:24:28;64.10;;;28.33;;
17953;SDS011;9102;53.548;9.926;2022-10-22T04:26:56;66.70;;;27.73;;
17953;SDS011;9102;53.548;9.926;2022-10-22T04:29:23;65.13;;;29.02;;
17953;SDS011;9102;53.548;9.926;2022-10-22T04:31:52;70.78;;;29.70;;
17953;SDS011;9102;53.548;9.926;2022-10-22T04:34:19;69.57;;;29.23;;
17953;SDS011;9102;53.548;9.926;2022-10-22T04:36:46;62.70;;;28.13;;
17953;SDS011;9102;53.548;9.926;2022-10-22T04:39:13;64.32;;;28.15;;
17953;SDS011;9102;53.548;9.926;2022-10-22T04:41:40;66.03;;;27.95;;
17953;SDS011;9102;53.548;9.926;2022-10-22T04:44:07;66.25;;;27.73;;
17953;SDS011;9102;53.548;9.926;2022-10-22T04:46:34;61.25;;;26.75;;
17953;SDS011;9102;53.548;9.926;2022-10-22T04:49:03;71.85;;;29.75;;
17953;SDS011;9102;53.548;9.926;2022-10-22T04:51:30;66.28;;;27.25;;
17953;SDS011;9102;53.548;9.926;2022-10-22T04:53:57;68.30;;;28.23;;
17953;SDS011;9102;53.548;9.926;2022-10-22T04:56:25;66.60;;;27.67;;
17953;SDS011;9102;53.548;9.926;2022-10-22T04:58:54;68.65;;;28.65;;
17953;SDS011;9102;53.548;9.926;2022-10-22T05:01:23;72.25;;;29.92;;
17953;SDS011;9102;53.548;9.926;2022-10-22T05:03:54;67.95;;;28.75;;
17953;SDS011;9102;53.548;9.926;2022-10-22T05:06:23;66.80;;;28.98;;
17953;SDS011;9102;53.548;9.926;2022-10-22T05:08:51;59.97;;;27.00;;
17953;SDS011;9102;53.548;9.926;2022-10-22T05:11:20;58.60;;;26.42;;
17953;SDS011;9102;53.548;9.926;2022-10-22T05:13:49;54.67;;;27.05;;
17953;SDS011;9102;53.548;9.926;2022-10-22T05:16:15;62.65;;;27.33;;
17953;SDS011;9102;53.548;9.926;2022-10-22T05:18:43;79.63;;;31.05;;
17953;SDS011;9102;53.548;9.926;2022-10-22T05:21:11;62.58;;;29.55;;
17953;SDS011;9102;53.548;9.926;2022-10-22T05:23:41;74.80;;;29.98;;
17953;SDS011;9102;53.548;9.926;2022-10-22T05:26:10;71.30;;;30.02;;
17953;SDS011;9102;53.548;9.926;2022-10-22T05:28:38;68.63;;;30.02;;
17953;SDS011;9102;53.548;9.926;2022-10-22T05:31:06;70.97;;;30.67;;
17953;SDS011;9102;53.548;9.926;2022-10-22T05:33:37;63.45;;;28.48;;
17953;SDS011;9102;53.548;9.926;2022-10-22T05:36:06;69.15;;;30.08;;
17953;SDS011;9102;53.548;9.926;2022-10-22T05:38:34;73.25;;;31.35;;
17953;SDS011;9102;53.548;9.926;2022-10-22T05:41:03;68.95;;;30.20;;
17953;SDS011;9102;53.548;9.926;2022-10-22T05:43:32;80.85;;;31.08;;
17953;SDS011;9102;53.548;9.926;2022-10-22T05:46:00;80.70;;;32.10;;
17953;SDS011;9102;53.548;9.926;2022-10-22T05:48:28;67.40;;;28.50;;
17953;SDS011;9102;53.548;9.926;2022-10-22T05:50:55;66.40;;;28.60;;
17953;SDS011;9102;53.548;9.926;2022-10-22T05:53:21;79.70;;;32.20;;
17953;SDS011;9102;53.548;9.926;2022-10-22T05:55:48;77.10;;;31.50;;
17953;SDS011;9102;53.548;9.926;2022-10-22T05:58:16;68.13;;;29.65;;
17953;SDS011;9102;53.548;9.926;2022-10-22T06:00:43;78.97;;;31.92;;
17953;SDS011;9102;53.548;9.926;2022-10-22T06:03:10;69.20;;;30.38;;
17953;SDS011;9102;53.548;9.926;2022-10-22T06:05:37;66.20;;;30.20;;
17953;SDS011;9102;53.548;9.926;2022-10-22T06:08:04;93.25;;;34.53;;
17953;SDS011;9102;53.548;9.926;2022-10-22T06:10:31;67.68;;;30.10;;
17953;SDS011;9102;53.548;9.926;2022-10-22T06:12:58;70.18;;;29.95;;
17953;SDS011;9102;53.548;9.926;2022-10-22T06:15:26;70.57;;;30.13;;
17953;SDS011;9102;53.548;9.926;2022-10-22T06:17:53;73.15;;;30.92;;
17953;SDS011;9102;53.548;9.926;2022-10-22T06:20:20;70.85;;;31.70;;
17953;SDS011;9102;53.548;9.926;2022-10-22T06:22:47;68.63;;;29.42;;
17953;SDS011;9102;53.548;9.926;2022-10-22T06:25:14;67.35;;;29.73;;
17953;SDS011;9102;53.548;9.926;2022-10-22T06:27:41;77.88;;;32.35;;
17953;SDS011;9102;53.548;9.926;2022-10-22T06:30:08;69.88;;;30.05;;
17953;SDS011;9102;53.548;9.926;2022-10-22T06:32:36;68.32;;;30.13;;
17953;SDS011;9102;53.548;9.926;2022-10-22T06:35:04;77.07;;;32.00;;
17953;SDS011;9102;53.548;9.926;2022-10-22T06:37:31;66.32;;;30.27;;
17953;SDS011;9102;53.548;9.926;2022-10-22T06:39:58;69.13;;;31.13;;
17953;SDS011;9102;53.548;9.926;2022-10-22T06:42:24;68.97;;;31.63;;
17953;SDS011;9102;53.548;9.926;2022-10-22T06:44:52;67.60;;;29.73;;
17953;SDS011;9102;53.548;9.926;2022-10-22T06:47:19;68.28;;;29.40;;
17953;SDS011;9102;53.548;9.926;2022-10-22T06:49:48;71.82;;;30.30;;
17953;SDS011;9102;53.548;9.926;2022-10-22T06:52:15;71.85;;;30.67;;
17953;SDS011;9102;53.548;9.926;2022-10-22T06:54:42;72.80;;;30.65;;
17953;SDS011;9102;53.548;9.926;2022-10-22T06:57:09;72.28;;;29.27;;
17953;SDS011;9102;53.548;9.926;2022-10-22T06:59:36;67.25;;;29.05;;
17953;SDS011;9102;53.548;9.926;2022-10-22T07:02:03;70.32;;;30.48;;
17953;SDS011;9102;53.548;9.926;2022-10-22T07:04:29;73.95;;;29.77;;
17953;SDS011;9102;53.548;9.926;2022-10-22T07:06:58;80.80;;;30.40;;
17953;SDS011;9102;53.548;9.926;2022-10-22T07:09:25;65.75;;;29.52;;
17953;SDS011;9102;53.548;9.926;2022-10-22T07:11:51;66.80;;;28.30;;
17953;SDS011;9102;53.548;9.926;2022-10-22T07:14:19;66.40;;;29.92;;
17953;SDS011;9102;53.548;9.926;2022-10-22T07:16:46;59.67;;;28.58;;
17953;SDS011;9102;53.548;9.926;2022-10-22T07:19:13;66.63;;;29.67;;
17953;SDS011;9102;53.548;9.926;2022-10-22T07:21:40;68.00;;;29.80;;
17953;SDS011;9102;53.548;9.926;2022-10-22T07:24:08;62.63;;;28.13;;
17953;SDS011;9102;53.548;9.926;2022-10-22T07:26:35;63.58;;;27.42;;
17953;SDS011;9102;53.548;9.926;2022-10-22T07:29:04;58.47;;;27.52;;
17953;SDS011;9102;53.548;9.926;2022-10-22T07:31:31;64.47;;;28.92;;
17953;SDS011;9102;53.548;9.926;2022-10-22T07:33:58;55.67;;;27.38;;
17953;SDS011;9102;53.548;9.926;2022-10-22T07:36:25;60.92;;;29.23;;
17953;SDS011;9102;53.548;9.926;2022-10-22T07:38:52;58.15;;;27.60;;
17953;SDS011;9102;53.548;9.926;2022-10-22T07:41:23;60.78;;;28.13;;
17953;SDS011;9102;53.548;9.926;2022-10-22T07:43:49;55.22;;;26.90;;
17953;SDS011;9102;53.548;9.926;2022-10-22T07:46:17;55.88;;;26.27;;
17953;SDS011;9102;53.548;9.926;2022-10-22T07:48:43;60.08;;;27.35;;
17953;SDS011;9102;53.548;9.926;2022-10-22T07:51:11;55.47;;;26.55;;
17953;SDS011;9102;53.548;9.926;2022-10-22T07:53:40;62.67;;;28.98;;
17953;SDS011;9102;53.548;9.926;2022-10-22T07:56:07;56.78;;;28.25;;
17953;SDS011;9102;53.548;9.926;2022-10-22T07:58:35;60.63;;;29.10;;
17953;SDS011;9102;53.548;9.926;2022-10-22T08:01:02;52.95;;;25.90;;
17953;SDS011;9102;53.548;9.926;2022-10-22T08:03:31;53.97;;;25.55;;
17953;SDS011;9102;53.548;9.926;2022-10-22T08:05:58;51.10;;;25.80;;
17953;SDS011;9102;53.548;9.926;2022-10-22T08:08:25;50.38;;;26.38;;
17953;SDS011;9102;53.548;9.926;2022-10-22T08:10:54;45.70;;;24.33;;
17953;SDS011;9102;53.548;9.926;2022-10-22T08:13:23;50.97;;;25.02;;
17953;SDS011;9102;53.548;9.926;2022-10-22T08:15:52;44.67;;;24.45;;
17953;SDS011;9102;53.548;9.926;2022-10-22T08:18:20;46.70;;;24.63;;
17953;SDS011;9102;53.548;9.926;2022-10-22T08:20:47;47.67;;;22.95;;
17953;SDS011;9102;53.548;9.926;2022-10-22T08:23:14;38.75;;;21.42;;
17953;SDS011;9102;53.548;9.926;2022-10-22T08:25:40;34.67;;;20.20;;
17953;SDS011;9102;53.548;9.926;2022-10-22T08:28:07;31.75;;;19.10;;
17953;SDS011;9102;53.548;9.926;2022-10-22T08:30:35;29.63;;;17.60;;
17953;SDS011;9102;53.548;9.926;2022-10-22T08:33:04;25.52;;;16.38;;
17953;SDS011;9102;53.548;9.926;2022-10-22T08:35:31;24.27;;;16.00;;
17953;SDS011;9102;53.548;9.926;2022-10-22T08:37:58;29.48;;;17.08;;
17953;SDS011;9102;53.548;9.926;2022-10-22T08:40:27;25.40;;;14.10;;
17953;SDS011;9102;53.548;9.926;2022-10-22T08:46:06;23.75;;;14.25;;
17953;SDS011;9102;53.548;9.926;2022-10-22T08:48:44;24.65;;;14.27;;
17953;SDS011;9102;53.548;9.926;2022-10-22T08:51:14;26.63;;;13.73;;
17953;SDS011;9102;53.548;9.926;2022-10-22T08:53:46;21.30;;;12.55;;
17953;SDS011;9102;53.548;9.926;2022-10-22T08:56:20;22.52;;;11.10;;
17953;SDS011;9102;53.548;9.926;2022-10-22T08:58:49;17.20;;;10.63;;
17953;SDS011;9102;53.548;9.926;2022-10-22T09:01:21;15.48;;;9.48;;
17953;SDS011;9102;53.548;9.926;2022-10-22T09:03:56;18.30;;;10.40;;
17953;SDS011;9102;53.548;9.926;2022-10-22T09:06:29;17.38;;;10.25;;
17953;SDS011;9102;53.548;9.926;2022-10-22T09:08:58;16.70;;;9.75;;
17953;SDS011;9102;53.548;9.926;2022-10-22T09:11:27;16.27;;;10.07;;
17953;SDS011;9102;53.548;9.926;2022-10-22T09:13:56;19.23;;;9.45;;
17953;SDS011;9102;53.548;9.926;2022-10-22T09:16:29;17.90;;;10.15;;
17953;SDS011;9102;53.548;9.926;2022-10-22T09:19:08;15.93;;;9.15;;
17953;SDS011;9102;53.548;9.926;2022-10-22T09:21:45;16.05;;;9.35;;
17953;SDS011;9102;53.548;9.926;2022-10-22T09:24:24;20.35;;;9.75;;
17953;SDS011;9102;53.548;9.926;2022-10-22T09:26:58;14.35;;;8.50;;
17953;SDS011;9102;53.548;9.926;2022-10-22T09:29:29;11.80;;;7.20;;
17953;SDS011;9102;53.548;9.926;2022-10-22T09:31:58;14.70;;;7.97;;
17953;SDS011;9102;53.548;9.926;2022-10-22T09:34:28;10.98;;;7.57;;
17953;SDS011;9102;53.548;9.926;2022-10-22T09:36:57;13.20;;;7.75;;
17953;SDS011;9102;53.548;9.926;2022-10-22T09:39:26;15.75;;;7.15;;
17953;SDS011;9102;53.548;9.926;2022-10-22T09:41:56;13.40;;;7.57;;
17953;SDS011;9102;53.548;9.926;2022-10-22T09:44:23;11.68;;;7.32;;
17953;SDS011;9102;53.548;9.926;2022-10-22T09:46:50;13.60;;;7.25;;
17953;SDS011;9102;53.548;9.926;2022-10-22T09:49:17;14.20;;;7.30;;
17953;SDS011;9102;53.548;9.926;2022-10-22T09:51:52;16.45;;;7.35;;
17953;SDS011;9102;53.548;9.926;2022-10-22T09:54:20;12.80;;;6.45;;
17953;SDS011;9102;53.548;9.926;2022-10-22T09:56:52;14.10;;;6.93;;
17953;SDS011;9102;53.548;9.926;2022-10-22T09:59:25;11.93;;;6.35;;
17953;SDS011;9102;53.548;9.926;2022-10-22T10:01:58;10.73;;;5.38;;
17953;SDS011;9102;53.548;9.926;2022-10-22T10:04:27;11.48;;;5.75;;
17953;SDS011;9102;53.548;9.926;2022-10-22T10:07:01;15.95;;;6.15;;
17953;SDS011;9102;53.548;9.926;2022-10-22T10:09:28;9.32;;;5.57;;
17953;SDS011;9102;53.548;9.926;2022-10-22T10:12:01;12.02;;;5.30;;
17953;SDS011;9102;53.548;9.926;2022-10-22T10:14:36;12.00;;;5.30;;
17953;SDS011;9102;53.548;9.926;2022-10-22T10:17:11;7.03;;;4.28;;
17953;SDS011;9102;53.548;9.926;2022-10-22T10:19:50;13.02;;;4.07;;
17953;SDS011;9102;53.548;9.926;2022-10-22T10:22:29;12.32;;;3.92;;
17953;SDS011;9102;53.548;9.926;2022-10-22T10:25:25;7.15;;;3.65;;
17953;SDS011;9102;53.548;9.926;2022-10-22T10:28:00;9.02;;;3.80;;
17953;SDS011;9102;53.548;9.926;2022-10-22T10:30:36;8.98;;;3.92;;
17953;SDS011;9102;53.548;9.926;2022-10-22T10:33:11;8.27;;;3.80;;
17953;SDS011;9102;53.548;9.926;2022-10-22T10:35:48;7.68;;;3.25;;
17953;SDS011;9102;53.548;9.926;2022-10-22T10:38:27;11.00;;;3.35;;
17953;SDS011;9102;53.548;9.926;2022-10-22T10:41:12;8.75;;;3.45;;
17953;SDS011;9102;53.548;9.926;2022-10-22T10:43:55;12.80;;;3.83;;
17953;SDS011;9102;53.548;9.926;2022-10-22T10:46:37;12.27;;;3.67;;
17953;SDS011;9102;53.548;9.926;2022-10-22T10:49:15;6.75;;;2.55;;
17953;SDS011;9102;53.548;9.926;2022-10-22T10:51:46;7.32;;;2.30;;
17953;SDS011;9102;53.548;9.926;2022-10-22T10:54:32;7.80;;;2.40;;
17953;SDS011;9102;53.548;9.926;2022-10-22T10:57:09;8.23;;;2.72;;
17953;SDS011;9102;53.548;9.926;2022-10-22T10:59:47;6.53;;;2.20;;
17953;SDS011;9102;53.548;9.926;2022-10-22T11:02:30;5.50;;;2.03;;
17953;SDS011;9102;53.548;9.926;2022-10-22T11:05:31;6.93;;;2.45;;
17953;SDS011;9102;53.548;9.926;2022-10-22T11:08:03;8.55;;;1.90;;
17953;SDS011;9102;53.548;9.926;2022-10-22T11:10:38;10.00;;;2.55;;
17953;SDS011;9102;53.548;9.926;2022-10-22T11:13:08;7.00;;;2.40;;
17953;SDS011;9102;53.548;9.926;2022-10-22T11:15:40;7.88;;;2.70;;
17953;SDS011;9102;53.548;9.926;2022-10-22T11:18:13;8.10;;;2.80;;
17953;SDS011;9102;53.548;9.926;2022-10-22T11:20:48;6.45;;;2.40;;
17953;SDS011;9102;53.548;9.926;2022-10-22T11:23:21;5.35;;;2.00;;
17953;SDS011;9102;53.548;9.926;2022-10-22T11:25:54;6.78;;;2.17;;
17953;SDS011;9102;53.548;9.926;2022-10-22T11:28:22;10.90;;;2.67;;
17953;SDS011;9102;53.548;9.926;2022-10-22T11:30:53;10.70;;;2.45;;
17953;SDS011;9102;53.548;9.926;2022-10-22T11:33:25;10.70;;;2.42;;
17953;SDS011;9102;53.548;9.926;2022-10-22T11:35:56;6.32;;;2.38;;
17953;SDS011;9102;53.548;9.926;2022-10-22T11:38:24;6.72;;;2.17;;
17953;SDS011;9102;53.548;9.926;2022-10-22T11:40:55;7.10;;;2.50;;
17953;SDS011;9102;53.548;9.926;2022-10-22T11:43:28;5.20;;;2.30;;
17953;SDS011;9102;53.548;9.926;2022-10-22T11:45:57;6.13;;;2.50;;
17953;SDS011;9102;53.548;9.926;2022-10-22T11:48:28;8.50;;;2.38;;
17953;SDS011;9102;53.548;9.926;2022-10-22T11:51:02;7.53;;;2.85;;
17953;SDS011;9102;53.548;9.926;2022-10-22T11:53:30;3.65;;;2.45;;
17953;SDS011;9102;53.548;9.926;2022-10-22T11:56:03;11.00;;;2.80;;
17953;SDS011;9102;53.548;9.926;2022-10-22T11:58:47;5.40;;;2.20;;
17953;SDS011;9102;53.548;9.926;2022-10-22T12:01:17;6.45;;;2.35;;
17953;SDS011;9102;53.548;9.926;2022-10-22T12:03:50;9.32;;;2.58;;
17953;SDS011;9102;53.548;9.926;2022-10-22T12:06:20;6.20;;;2.55;;
17953;SDS011;9102;53.548;9.926;2022-10-22T12:08:54;8.73;;;2.50;;
17953;SDS011;9102;53.548;9.926;2022-10-22T12:11:26;13.82;;;2.72;;
17953;SDS011;9102;53.548;9.926;2022-10-22T12:14:01;5.78;;;2.70;;
17953;SDS011;9102;53.548;9.926;2022-10-22T12:16:39;7.15;;;2.47;;
17953;SDS011;9102;53.548;9.926;2022-10-22T12:19:11;8.70;;;3.03;;
17953;SDS011;9102;53.548;9.926;2022-10-22T12:21:41;7.13;;;3.10;;
17953;SDS011;9102;53.548;9.926;2022-10-22T12:24:11;9.98;;;3.55;;
17953;SDS011;9102;53.548;9.926;2022-10-22T12:26:41;7.55;;;3.35;;
17953;SDS011;9102;53.548;9.926;2022-10-22T12:29:11;11.48;;;3.38;;
17953;SDS011;9102;53.548;9.926;2022-10-22T12:31:40;6.65;;;3.15;;
17953;SDS011;9102;53.548;9.926;2022-10-22T12:34:12;9.88;;;3.58;;
17953;SDS011;9102;53.548;9.926;2022-10-22T12:36:40;11.02;;;3.92;;
17953;SDS011;9102;53.548;9.926;2022-10-22T12:39:10;6.65;;;3.30;;
17953;SDS011;9102;53.548;9.926;2022-10-22T12:41:39;9.02;;;3.28;;
17953;SDS011;9102;53.548;9.926;2022-10-22T12:44:10;6.53;;;3.30;;
17953;SDS011;9102;53.548;9.926;2022-10-22T12:46:39;9.00;;;3.60;;
17953;SDS011;9102;53.548;9.926;2022-10-22T12:49:07;7.60;;;3.05;;
17953;SDS011;9102;53.548;9.926;2022-10-22T12:51:39;9.77;;;2.72;;
17953;SDS011;9102;53.548;9.926;2022-10-22T12:54:07;10.57;;;3.30;;
17953;SDS011;9102;53.548;9.926;2022-10-22T12:56:44;9.00;;;3.03;;
17953;SDS011;9102;53.548;9.926;2022-10-22T12:59:15;8.63;;;3.53;;
17953;SDS011;9102;53.548;9.926;2022-10-22T13:01:45;6.90;;;3.10;;
17953;SDS011;9102;53.548;9.926;2022-10-22T13:04:18;10.40;;;3.40;;
17953;SDS011;9102;53.548;9.926;2022-10-22T13:06:47;8.80;;;2.78;;
17953;SDS011;9102;53.548;9.926;2022-10-22T13:09:16;8.20;;;2.80;;
17953;SDS011;9102;53.548;9.926;2022-10-22T13:11:48;10.18;;;3.28;;
17953;SDS011;9102;53.548;9.926;2022-10-22T13:14:20;7.32;;;3.08;;
17953;SDS011;9102;53.548;9.926;2022-10-22T13:17:05;9.85;;;3.53;;
17953;SDS011;9102;53.548;9.926;2022-10-22T13:19:42;6.30;;;2.90;;
17953;SDS011;9102;53.548;9.926;2022-10-22T13:24:57;7.35;;;3.00;;
17953;SDS011;9102;53.548;9.926;2022-10-22T13:27:28;8.35;;;2.95;;
17953;SDS011;9102;53.548;9.926;2022-10-22T13:29:59;7.75;;;2.50;;
17953;SDS011;9102;53.548;9.926;2022-10-22T13:32:29;5.57;;;2.22;;
17953;SDS011;9102;53.548;9.926;2022-10-22T13:34:58;6.72;;;2.50;;
17953;SDS011;9102;53.548;9.926;2022-10-22T13:37:27;8.90;;;2.58;;
17953;SDS011;9102;53.548;9.926;2022-10-22T13:39:55;8.25;;;3.05;;
17953;SDS011;9102;53.548;9.926;2022-10-22T13:42:22;8.80;;;3.17;;
17953;SDS011;9102;53.548;9.926;2022-10-22T13:44:48;10.30;;;2.60;;
17953;SDS011;9102;53.548;9.926;2022-10-22T13:47:21;7.85;;;2.97;;
17953;SDS011;9102;53.548;9.926;2022-10-22T13:49:50;8.98;;;2.60;;
17953;SDS011;9102;53.548;9.926;2022-10-22T13:52:21;12.40;;;3.00;;
17953;SDS011;9102;53.548;9.926;2022-10-22T13:54:53;10.50;;;3.15;;
17953;SDS011;9102;53.548;9.926;2022-10-22T13:57:20;9.07;;;2.75;;
17953;SDS011;9102;53.548;9.926;2022-10-22T13:59:47;7.30;;;2.08;;
17953;SDS011;9102;53.548;9.926;2022-10-22T14:02:14;8.95;;;3.05;;
17953;SDS011;9102;53.548;9.926;2022-10-22T14:04:42;8.90;;;2.30;;
17953;SDS011;9102;53.548;9.926;2022-10-22T14:07:11;10.35;;;3.30;;
17953;SDS011;9102;53.548;9.926;2022-10-22T14:09:38;7.88;;;2.65;;
17953;SDS011;9102;53.548;9.926;2022-10-22T14:12:09;5.90;;;2.25;;
17953;SDS011;9102;53.548;9.926;2022-10-22T14:14:37;7.20;;;2.22;;
17953;SDS011;9102;53.548;9.926;2022-10-22T14:17:04;9.80;;;2.40;;
17953;SDS011;9102;53.548;9.926;2022-10-22T14:19:33;12.77;;;2.15;;
17953;SDS011;9102;53.548;9.926;2022-10-22T14:22:02;5.35;;;1.60;;
17953;SDS011;9102;53.548;9.926;2022-10-22T14:24:29;4.05;;;1.63;;
17953;SDS011;9102;53.548;9.926;2022-10-22T14:26:55;9.63;;;2.35;;
17953;SDS011;9102;53.548;9.926;2022-10-22T14:29:22;7.13;;;1.95;;
17953;SDS011;9102;53.548;9.926;2022-10-22T14:31:49;6.53;;;2.30;;
17953;SDS011;9102;53.548;9.926;2022-10-22T14:34:16;8.10;;;2.70;;
17953;SDS011;9102;53.548;9.926;2022-10-22T14:36:43;9.38;;;2.30;;
17953;SDS011;9102;53.548;9.926;2022-10-22T14:39:11;5.80;;;2.15;;
17953;SDS011;9102;53.548;9.926;2022-10-22T14:41:38;5.85;;;2.28;;
17953;SDS011;9102;53.548;9.926;2022-10-22T14:44:06;6.75;;;2.25;;
17953;SDS011;9102;53.548;9.926;2022-10-22T14:46:36;13.75;;;7.45;;
17953;SDS011;9102;53.548;9.926;2022-10-22T14:49:04;6.55;;;2.08;;
17953;SDS011;9102;53.548;9.926;2022-10-22T14:51:31;6.18;;;1.90;;
17953;SDS011;9102;53.548;9.926;2022-10-22T14:53:58;10.93;;;2.50;;
17953;SDS011;9102;53.548;9.926;2022-10-22T14:56:26;9.27;;;2.08;;
17953;SDS011;9102;53.548;9.926;2022-10-22T14:58:53;12.70;;;2.67;;
17953;SDS011;9102;53.548;9.926;2022-10-22T15:01:19;7.75;;;2.33;;
17953;SDS011;9102;53.548;9.926;2022-10-22T15:03:46;7.47;;;2.08;;
17953;SDS011;9102;53.548;9.926;2022-10-22T15:06:13;6.53;;;2.13;;